Time;durP1;ratioP1;P1;durP2;ratioP2;P2;SDS_P1;SDS_P2;PMS_P1;PMS_P2;Temp;Humidity;BMP_temperature;BMP_pressure;BME280_temperature;BME280_humidity;BME280_pressure;Samples;Min_cycle;Max_cycle;Signal;HPM_P1;HPM_P2
2021/12/27 00:01:51;;;;;;;16.60;4.70;;;-7.20;99.90;;;;;;5059262;28;20211;-68
2021/12/27 00:04:17;;;;;;;30.27;7.00;;;;;;;;;;5040991;28;20316;-67
2021/12/27 00:06:42;;;;;;;22.17;5.63;;;-7.50;99.90;;;;;;5055846;28;20325;-67
2021/12/27 00:09:08;;;;;;;16.73;4.80;;;-7.20;99.90;;;;;;5055774;28;20764;-67
2021/12/27 00:11:33;;;;;;;26.35;6.40;;;-7.30;99.90;;;;;;5054661;28;20179;-67
2021/12/27 00:13:59;;;;;;;34.73;7.53;;;-7.20;99.90;;;;;;5057310;28;20381;-68
2021/12/27 00:16:24;;;;;;;15.20;4.57;;;-7.20;99.90;;;;;;5057779;28;20191;-67
2021/12/27 00:18:50;;;;;;;18.80;5.23;;;-7.20;99.90;;;;;;5043210;28;20223;-67
2021/12/27 00:21:15;;;;;;;21.67;5.80;;;-7.00;99.90;;;;;;5058431;28;20218;-67
2021/12/27 00:23:41;;;;;;;;;;;-7.30;99.90;;;;;;5053284;28;20249;-67
2021/12/27 00:26:07;;;;;;;18.57;4.67;;;-7.20;99.90;;;;;;5058270;28;20353;-68
2021/12/27 00:28:33;;;;;;;31.57;7.17;;;-7.20;99.90;;;;;;5061135;28;20252;-67
2021/12/27 00:30:59;;;;;;;23.20;5.30;;;-7.80;99.90;;;;;;5051693;28;20146;-68
2021/12/27 00:33:25;;;;;;;34.05;7.15;;;-7.30;99.90;;;;;;5040080;28;20054;-67
2021/12/27 00:35:51;;;;;;;31.93;6.93;;;-7.00;99.90;;;;;;5054450;28;20233;-68
2021/12/27 00:38:17;;;;;;;25.67;6.33;;;;;;;;;;5055822;28;20210;-67
2021/12/27 00:40:43;;;;;;;23.20;5.90;;;;;;;;;;5057765;28;20176;-67
2021/12/27 00:43:09;;;;;;;15.10;4.60;;;-7.40;99.90;;;;;;5052166;28;20466;-67
2021/12/27 00:45:34;;;;;;;23.45;5.90;;;-7.20;99.90;;;;;;5054315;28;20425;-67
2021/12/27 00:48:00;;;;;;;19.70;5.50;;;-7.20;99.90;;;;;;5055355;28;20662;-67
2021/12/27 00:50:26;;;;;;;40.53;8.87;;;-7.30;99.90;;;;;;5056778;28;20293;-67
2021/12/27 00:52:52;;;;;;;23.00;5.90;;;;;;;;;;5039580;28;20186;-67
2021/12/27 00:55:18;;;;;;;44.50;9.30;;;-6.80;99.90;;;;;;5051387;28;20190;-68
2021/12/27 00:57:46;;;;;;;;;;;-7.20;99.90;;;;;;5056261;28;20341;-67
2021/12/27 01:00:18;;;;;;;19.20;5.23;;;-7.20;99.90;;;;;;5053978;28;20014;-67
2021/12/27 01:02:45;;;;;;;23.73;6.03;;;-6.80;99.90;;;;;;5060028;28;20689;-68
2021/12/27 01:05:11;;;;;;;21.10;5.60;;;-7.10;99.90;;;;;;5040907;28;20175;-68
2021/12/27 01:07:36;;;;;;;34.17;7.57;;;-7.30;99.90;;;;;;5055440;28;20207;-67
2021/12/27 01:13:04;;;;;;;21.20;5.57;;;-7.20;99.90;;;;;;5054912;28;20301;-67
2021/12/27 01:18:06;;;;;;;39.27;7.93;;;-7.40;99.90;;;;;;5056147;28;20575;-67
2021/12/27 01:20:31;;;;;;;46.07;9.60;;;-7.20;99.90;;;;;;5055915;28;20646;-67
2021/12/27 01:22:57;;;;;;;40.10;8.50;;;-7.30;99.90;;;;;;5050454;28;20286;-68
2021/12/27 01:25:24;;;;;;;26.00;6.30;;;-7.30;99.90;;;;;;5051928;28;20295;-67
2021/12/27 01:27:53;;;;;;;18.73;5.10;;;-7.30;99.90;;;;;;5057269;28;20213;-68
2021/12/27 01:30:20;;;;;;;28.37;6.60;;;-7.20;99.90;;;;;;5038436;28;25070;-67
2021/12/27 01:32:51;;;;;;;25.57;6.37;;;-7.40;99.90;;;;;;5054826;28;20199;-67
2021/12/27 01:35:18;;;;;;;22.50;5.60;;;-7.40;99.90;;;;;;5056547;28;20189;-68
2021/12/27 01:37:44;;;;;;;35.70;7.85;;;-7.20;99.90;;;;;;5052637;28;20248;-67
2021/12/27 01:40:12;;;;;;;25.20;5.63;;;-6.90;99.90;;;;;;5055048;28;20202;-67
2021/12/27 01:42:58;;;;;;;39.30;8.60;;;-7.30;99.90;;;;;;5053594;28;20193;-68
2021/12/27 01:45:24;;;;;;;24.80;5.73;;;-7.20;99.90;;;;;;5053075;28;20488;-67
2021/12/27 01:47:50;;;;;;;17.50;4.97;;;-7.20;99.90;;;;;;5066536;28;20232;-67
2021/12/27 01:50:15;;;;;;;20.73;5.60;;;-7.20;99.90;;;;;;5065729;28;20646;-67
2021/12/27 01:52:41;;;;;;;14.23;4.60;;;-7.30;99.90;;;;;;5058045;28;20722;-67
2021/12/27 01:55:07;;;;;;;15.80;4.77;;;-7.20;99.90;;;;;;5060458;28;23230;-67
2021/12/27 01:57:33;;;;;;;13.10;4.13;;;-7.10;99.90;;;;;;5064579;28;20652;-67
2021/12/27 01:59:58;;;;;;;14.63;4.60;;;-7.30;99.90;;;;;;5047499;28;20712;-67
2021/12/27 02:02:25;;;;;;;10.40;3.80;;;-7.20;99.90;;;;;;5061367;28;20682;-67
2021/12/27 02:04:51;;;;;;;14.57;4.17;;;-7.10;99.90;;;;;;5061087;28;20230;-67
2021/12/27 02:07:16;;;;;;;15.07;4.27;;;-6.90;99.90;;;;;;5056864;28;20265;-67
2021/12/27 02:09:53;;;;;;;10.83;3.80;;;-7.10;99.90;;;;;;5056889;28;20191;-67
2021/12/27 02:12:19;;;;;;;15.97;4.23;;;-7.20;99.90;;;;;;5057487;28;20215;-67
2021/12/27 02:14:44;;;;;;;17.40;4.50;;;-7.10;99.90;;;;;;5054941;28;20239;-67
2021/12/27 02:17:10;;;;;;;21.17;5.40;;;;;;;;;;5060676;28;20337;-67
2021/12/27 02:19:36;;;;;;;12.93;4.23;;;-7.00;99.90;;;;;;5063552;28;20179;-67
2021/12/27 02:22:02;;;;;;;17.10;4.80;;;-7.20;99.90;;;;;;5067395;28;20206;-67
2021/12/27 02:24:27;;;;;;;27.27;6.63;;;-7.00;99.90;;;;;;5058321;28;20192;-67
2021/12/27 02:26:53;;;;;;;14.73;4.40;;;;;;;;;;5058013;28;20186;-67
2021/12/27 02:29:18;;;;;;;43.17;9.17;;;-7.40;99.90;;;;;;5059445;28;20662;-67
2021/12/27 02:31:45;;;;;;;33.03;7.50;;;-6.90;99.90;;;;;;5059269;28;20269;-67
2021/12/27 02:34:11;;;;;;;15.30;4.23;;;-7.10;99.90;;;;;;5063033;28;20182;-67
2021/12/27 02:36:36;;;;;;;33.37;7.33;;;-7.10;99.90;;;;;;5061356;28;20183;-67
2021/12/27 02:39:03;;;;;;;25.07;6.10;;;-7.00;99.90;;;;;;5058210;28;20594;-67
2021/12/27 02:41:29;;;;;;;14.93;4.30;;;-7.10;99.90;;;;;;5062074;28;20332;-67
2021/12/27 02:43:54;;;;;;;26.67;6.20;;;-7.20;99.90;;;;;;5056796;28;20313;-67
2021/12/27 02:46:20;;;;;;;9.07;3.70;;;-7.20;99.90;;;;;;5044581;28;20467;-67
2021/12/27 02:48:47;;;;;;;27.53;6.70;;;-7.20;99.90;;;;;;5057461;28;20198;-67
2021/12/27 02:51:15;;;;;;;27.93;6.77;;;-7.10;99.90;;;;;;5057947;28;20271;-67
2021/12/27 02:53:41;;;;;;;29.63;6.87;;;-7.20;99.90;;;;;;5058051;28;20174;-67
2021/12/27 02:56:06;;;;;;;26.43;6.47;;;-7.20;99.90;;;;;;5052222;28;20205;-67
2021/12/27 02:58:34;;;;;;;16.17;4.60;;;-7.30;99.90;;;;;;5061823;28;20297;-67
2021/12/27 03:01:18;;;;;;;6.33;3.20;;;-7.10;99.90;;;;;;5041120;28;20183;-67
2021/12/27 03:03:44;;;;;;;14.57;3.97;;;-7.20;99.90;;;;;;5056034;28;20199;-67
2021/12/27 03:06:10;;;;;;;14.10;4.47;;;-7.20;99.90;;;;;;5062816;28;20688;-67
2021/12/27 03:08:38;;;;;;;13.97;4.70;;;-7.00;99.90;;;;;;5055915;28;20207;-67
2021/12/27 03:11:05;;;;;;;15.17;4.60;;;-7.20;99.90;;;;;;5049711;28;20214;-67
2021/12/27 03:13:35;;;;;;;27.50;6.63;;;-7.30;99.90;;;;;;5061946;28;20229;-67
2021/12/27 03:16:08;;;;;;;12.17;4.27;;;-7.10;99.90;;;;;;5061055;28;20189;-67
2021/12/27 03:18:35;;;;;;;13.47;4.40;;;-7.30;99.90;;;;;;5061221;28;20869;-67
2021/12/27 03:21:04;;;;;;;17.67;5.10;;;-7.30;99.90;;;;;;5057821;28;20180;-67
2021/12/27 03:23:30;;;;;;;35.33;7.73;;;-7.00;99.90;;;;;;5056223;28;20255;-67
2021/12/27 03:25:55;;;;;;;19.77;5.30;;;-7.30;99.90;;;;;;5057382;28;20656;-67
2021/12/27 03:28:22;;;;;;;21.03;3.83;;;-7.30;99.90;;;;;;5085965;22;20253;-47
2021/12/27 03:30:48;;;;;;;20.50;3.77;;;-7.30;99.90;;;;;;5070602;28;20175;-47
2021/12/27 03:33:15;;;;;;;28.80;5.07;;;-7.20;99.90;;;;;;5071147;28;20650;-47
2021/12/27 03:35:51;;;;;;;21.03;3.83;;;-7.40;99.90;;;;;;5071072;28;20258;-48
2021/12/27 03:38:17;;;;;;;24.37;4.37;;;-7.30;99.90;;;;;;5071864;28;20163;-47
2021/12/27 03:40:45;;;;;;;19.57;3.63;;;-7.30;99.90;;;;;;5070805;28;20183;-47
2021/12/27 03:43:12;;;;;;;27.63;4.87;;;-7.20;99.90;;;;;;5070374;28;20207;-47
2021/12/27 03:45:39;;;;;;;20.17;3.67;;;-7.30;99.90;;;;;;5052909;28;20203;-47
2021/12/27 03:48:08;;;;;;;19.47;3.57;;;-7.20;99.90;;;;;;5071623;28;20179;-47
2021/12/27 03:50:34;;;;;;;22.27;4.03;;;-7.30;99.90;;;;;;5070478;28;20160;-47
2021/12/27 03:53:01;;;;;;;21.63;4.00;;;-7.30;99.90;;;;;;5070883;28;20191;-48
2021/12/27 03:55:26;;;;;;;10.73;2.27;;;-7.20;99.90;;;;;;5070733;28;20445;-47
2021/12/27 03:57:54;;;;;;;21.00;3.87;;;-7.20;99.90;;;;;;5070900;28;20483;-47
2021/12/27 04:02:53;;;;;;;23.63;4.23;;;-7.30;99.90;;;;;;5070124;28;20202;-47
2021/12/27 04:05:20;;;;;;;20.50;3.90;;;-7.40;99.90;;;;;;5070685;28;20171;-47
2021/12/27 04:07:48;;;;;;;23.40;4.23;;;-7.40;99.90;;;;;;5070620;28;20167;-47
2021/12/27 04:10:15;;;;;;;21.13;3.87;;;-7.40;99.90;;;;;;5070743;28;20175;-47
2021/12/27 04:12:40;;;;;;;18.27;3.43;;;-7.40;99.90;;;;;;5070853;28;20197;-47
2021/12/27 04:15:09;;;;;;;22.17;4.03;;;-7.40;99.90;;;;;;5070154;28;20163;-47
2021/12/27 04:17:34;;;;;;;22.00;4.00;;;-7.20;99.90;;;;;;5070660;28;20202;-47
2021/12/27 04:20:00;;;;;;;24.87;4.57;;;-7.40;99.90;;;;;;5070827;28;20206;-47
2021/12/27 04:22:26;;;;;;;21.80;4.00;;;-7.40;99.90;;;;;;5070394;28;20726;-47
2021/12/27 04:24:52;;;;;;;20.07;3.70;;;-7.50;99.90;;;;;;5070488;28;20202;-47
2021/12/27 04:27:17;;;;;;;20.20;3.70;;;-7.50;99.90;;;;;;5070204;28;20678;-47
2021/12/27 04:29:43;;;;;;;23.50;4.20;;;-7.40;99.90;;;;;;5069892;28;20185;-47
2021/12/27 04:32:09;;;;;;;13.97;2.70;;;-7.40;99.90;;;;;;5070711;28;20189;-47
2021/12/27 04:34:34;;;;;;;22.77;4.13;;;-7.40;99.90;;;;;;5069943;28;20206;-47
2021/12/27 04:37:00;;;;;;;20.53;3.73;;;-6.90;99.90;;;;;;5070704;28;20244;-47
2021/12/27 04:39:26;;;;;;;21.97;4.10;;;-7.30;99.90;;;;;;5070401;28;20178;-48
2021/12/27 04:41:52;;;;;;;28.47;5.03;;;-7.30;99.90;;;;;;5070488;28;20528;-47
2021/12/27 04:44:18;;;;;;;21.23;3.93;;;-7.30;99.90;;;;;;5070147;28;20190;-47
2021/12/27 04:46:44;;;;;;;20.50;3.70;;;-7.10;99.90;;;;;;5070045;28;20223;-47
2021/12/27 04:49:09;;;;;;;17.93;3.30;;;-7.40;99.90;;;;;;5070322;28;20201;-47
2021/12/27 04:51:35;;;;;;;12.37;2.50;;;;;;;;;;5070229;28;20202;-47
2021/12/27 04:54:01;;;;;;;23.90;4.30;;;-7.40;99.90;;;;;;5068605;28;20186;-48
2021/12/27 04:56:27;;;;;;;22.50;4.13;;;-7.30;99.90;;;;;;5070165;28;20179;-47
2021/12/27 04:58:52;;;;;;;24.97;4.50;;;-7.30;99.90;;;;;;5069752;28;20187;-47
2021/12/27 05:01:18;;;;;;;23.73;4.33;;;-7.30;99.90;;;;;;5070448;28;20175;-48
2021/12/27 05:03:43;;;;;;;16.67;3.13;;;-7.30;99.90;;;;;;5069824;28;20199;-48
2021/12/27 05:06:13;;;;;;;22.60;4.03;;;-7.10;99.90;;;;;;5069859;28;20512;-47
2021/12/27 05:08:39;;;;;;;27.37;4.87;;;-7.10;99.90;;;;;;5070188;28;20171;-47
2021/12/27 05:11:05;;;;;;;23.30;4.27;;;-7.00;99.90;;;;;;5069980;28;20631;-47
2021/12/27 05:13:32;;;;;;;24.47;4.50;;;-7.00;99.90;;;;;;5069426;28;20191;-47
2021/12/27 05:16:00;;;;;;;22.80;4.13;;;-7.00;99.90;;;;;;5071479;28;20183;-47
2021/12/27 05:18:26;;;;;;;24.17;4.30;;;-6.90;99.90;;;;;;5073444;28;20657;-47
2021/12/27 05:20:52;;;;;;;27.87;4.97;;;-6.90;99.90;;;;;;5073668;28;20206;-48
2021/12/27 05:23:18;;;;;;;29.67;5.23;;;-6.50;99.90;;;;;;5073766;28;20632;-47
2021/12/27 05:25:44;;;;;;;12.07;2.50;;;-7.00;99.90;;;;;;5073821;28;20653;-47
2021/12/27 05:28:09;;;;;;;23.27;4.23;;;-6.70;99.90;;;;;;5073650;28;20626;-47
2021/12/27 05:30:36;;;;;;;22.50;4.10;;;-6.70;99.90;;;;;;5073134;28;20608;-47
2021/12/27 05:33:02;;;;;;;23.47;4.20;;;-6.60;99.90;;;;;;5073349;28;20203;-47
2021/12/27 05:35:28;;;;;;;29.97;5.30;;;-6.60;99.90;;;;;;5072173;28;20233;-47
2021/12/27 05:37:54;;;;;;;22.43;4.07;;;-6.50;99.90;;;;;;5073547;28;20649;-47
2021/12/27 05:40:22;;;;;;;14.30;2.87;;;-6.50;99.90;;;;;;5073453;28;20337;-47
2021/12/27 05:42:50;;;;;;;20.90;3.87;;;-6.40;99.90;;;;;;5073388;28;20198;-47
2021/12/27 05:45:16;;;;;;;34.67;6.03;;;-6.50;99.90;;;;;;5072640;28;20197;-48
2021/12/27 05:47:42;;;;;;;30.50;5.40;;;-6.80;99.90;;;;;;5073150;28;20237;-47
2021/12/27 05:50:09;;;;;;;23.23;4.23;;;-6.40;99.90;;;;;;5072853;28;20175;-47
2021/12/27 05:52:35;;;;;;;22.90;4.07;;;-6.30;99.90;;;;;;5073197;28;20657;-48
2021/12/27 05:55:01;;;;;;;20.03;3.67;;;-6.50;99.90;;;;;;5073020;28;20195;-47
2021/12/27 05:57:27;;;;;;;26.87;4.80;;;-6.30;99.90;;;;;;5072707;28;20246;-47
2021/12/27 05:59:53;;;;;;;11.63;2.33;;;-6.30;99.90;;;;;;5072835;28;20380;-47
2021/12/27 06:02:18;;;;;;;28.80;5.13;;;-6.40;99.90;;;;;;5072992;28;20675;-47
2021/12/27 06:04:44;;;;;;;25.97;4.63;;;-5.90;99.90;;;;;;5072722;28;20198;-48
2021/12/27 06:07:09;;;;;;;22.03;4.03;;;-6.40;99.90;;;;;;5073072;28;20171;-47
2021/12/27 06:09:35;;;;;;;23.80;4.27;;;-6.30;99.90;;;;;;5072376;28;20490;-47
2021/12/27 06:12:01;;;;;;;26.93;4.80;;;-5.70;99.90;;;;;;5072791;28;20195;-47
2021/12/27 06:14:26;;;;;;;28.73;5.10;;;-6.40;99.90;;;;;;5072327;28;20240;-48
2021/12/27 06:16:52;;;;;;;23.70;4.30;;;-6.30;99.90;;;;;;5072416;28;20254;-47
2021/12/27 06:19:17;;;;;;;21.13;3.87;;;-6.30;99.90;;;;;;5072717;28;20203;-47
2021/12/27 06:21:43;;;;;;;32.20;5.70;;;;;;;;;;5072144;28;20678;-48
2021/12/27 06:24:09;;;;;;;36.97;6.30;;;-6.80;99.90;;;;;;5072196;28;20287;-47
2021/12/27 06:26:34;;;;;;;23.73;4.33;;;-6.20;99.90;;;;;;5072308;28;20198;-48
2021/12/27 06:29:00;;;;;;;19.63;3.67;;;-6.10;99.90;;;;;;5071800;28;20233;-47
2021/12/27 06:31:26;;;;;;;23.03;4.17;;;-6.20;99.90;;;;;;5072504;28;20171;-47
2021/12/27 06:33:51;;;;;;;33.10;5.83;;;-6.40;99.90;;;;;;5071968;28;20707;-47
2021/12/27 06:36:17;;;;;;;26.10;4.70;;;-6.30;99.90;;;;;;5072221;28;20261;-47
2021/12/27 06:38:42;;;;;;;27.30;4.83;;;-6.10;99.90;;;;;;5072470;28;20175;-47
2021/12/27 06:41:09;;;;;;;26.70;4.83;;;-6.20;99.90;;;;;;5072320;28;20186;-47
2021/12/27 06:43:35;;;;;;;26.87;4.77;;;-6.20;99.90;;;;;;5071844;28;20207;-48
2021/12/27 06:46:01;;;;;;;28.97;5.23;;;-6.10;99.90;;;;;;5072189;28;20178;-47
2021/12/27 06:48:27;;;;;;;30.03;5.37;;;-6.10;99.90;;;;;;5071966;28;20636;-48
2021/12/27 06:50:53;;;;;;;24.13;4.43;;;-6.10;99.90;;;;;;5072135;28;20321;-47
2021/12/27 06:53:19;;;;;;;15.87;3.03;;;-6.10;99.90;;;;;;5071929;28;20242;-47
2021/12/27 06:55:46;;;;;;;9.90;2.10;;;-6.10;99.90;;;;;;5072232;28;20257;-46
2021/12/27 06:58:13;;;;;;;22.43;4.13;;;-6.10;99.90;;;;;;5072140;28;20254;-46
2021/12/27 07:00:38;;;;;;;18.50;3.47;;;-6.00;99.90;;;;;;5071663;28;20156;-47
2021/12/27 07:03:04;;;;;;;8.03;1.73;;;-6.00;99.90;;;;;;5071871;28;20194;-47
2021/12/27 07:05:29;;;;;;;16.87;3.17;;;-5.90;99.90;;;;;;5071639;28;20175;-47
2021/12/27 07:07:55;;;;;;;13.27;2.57;;;-6.00;99.90;;;;;;5072090;28;20175;-47
2021/12/27 07:10:22;;;;;;;37.83;6.50;;;-6.00;99.90;;;;;;5071565;28;20170;-47
2021/12/27 07:12:48;;;;;;;33.33;5.90;;;-6.00;99.90;;;;;;5071184;28;20538;-47
2021/12/27 07:15:14;;;;;;;21.03;3.87;;;-5.80;99.90;;;;;;5071438;28;20217;-47
2021/12/27 07:17:40;;;;;;;35.23;6.13;;;-5.70;99.90;;;;;;5071318;28;20208;-47
2021/12/27 07:20:06;;;;;;;19.33;3.47;;;-5.90;99.90;;;;;;5071668;28;20195;-47
2021/12/27 07:22:33;;;;;;;20.47;3.80;;;-5.90;99.90;;;;;;5071508;28;20190;-46
2021/12/27 07:24:59;;;;;;;22.53;4.13;;;-6.00;99.90;;;;;;5070982;28;20205;-47
2021/12/27 07:27:24;;;;;;;29.53;5.13;;;-5.90;99.90;;;;;;5070449;28;20713;-47
2021/12/27 07:29:50;;;;;;;21.23;3.97;;;-5.90;99.90;;;;;;5070978;28;20182;-47
2021/12/27 07:32:16;;;;;;;24.23;4.37;;;-5.90;99.90;;;;;;5070848;28;20202;-47
2021/12/27 07:34:41;;;;;;;31.87;5.60;;;-5.90;99.90;;;;;;5070818;28;20198;-47
2021/12/27 07:37:07;;;;;;;26.40;4.77;;;-5.90;99.90;;;;;;5071000;28;20171;-46
2021/12/27 07:39:33;;;;;;;21.20;3.80;;;-5.80;99.90;;;;;;5070522;28;20251;-47
2021/12/27 07:41:58;;;;;;;19.50;3.60;;;-5.80;99.90;;;;;;5071570;28;20654;-47
2021/12/27 07:44:24;;;;;;;5.23;1.23;;;-5.50;99.90;;;;;;5070460;28;20973;-47
2021/12/27 07:46:51;;;;;;;17.53;3.27;;;-5.70;99.90;;;;;;5071164;28;20167;-47
2021/12/27 07:49:17;;;;;;;20.73;3.80;;;-5.60;99.90;;;;;;5070812;28;20171;-46
2021/12/27 07:51:44;;;;;;;22.70;4.13;;;-5.50;99.90;;;;;;5071078;28;20224;-47
2021/12/27 07:54:10;;;;;;;17.27;3.30;;;-5.60;99.90;;;;;;5071176;28;20167;-47
2021/12/27 07:56:37;;;;;;;20.80;3.87;;;-5.50;99.90;;;;;;5070680;28;20186;-47
2021/12/27 07:59:04;;;;;;;21.90;4.10;;;-5.50;99.90;;;;;;5070462;28;20267;-47
2021/12/27 08:01:32;;;;;;;17.67;3.37;;;-5.40;99.90;;;;;;5071131;28;20535;-47
2021/12/27 08:03:57;;;;;;;17.63;3.37;;;-5.50;99.90;;;;;;5070390;28;20190;-47
2021/12/27 08:06:23;;;;;;;15.33;3.00;;;-5.50;99.90;;;;;;5071113;28;20179;-46
2021/12/27 08:08:48;;;;;;;13.23;2.70;;;-5.40;99.90;;;;;;5071003;28;20182;-47
2021/12/27 08:11:14;;;;;;;28.23;5.03;;;-5.40;99.90;;;;;;5070818;28;20205;-47
2021/12/27 08:13:42;;;;;;;18.67;3.53;;;-5.40;99.90;;;;;;5070495;28;20222;-47
2021/12/27 08:16:09;;;;;;;19.60;3.73;;;-5.40;99.90;;;;;;5070539;28;20623;-47
2021/12/27 08:18:34;;;;;;;18.90;3.60;;;-5.30;99.90;;;;;;5070579;28;20190;-47
2021/12/27 08:21:00;;;;;;;13.45;2.75;;;-5.20;99.90;;;;;;5070898;28;20542;-47
2021/12/27 08:23:26;;;;;;;15.95;3.10;;;-5.30;99.90;;;;;;5070469;28;20227;-47
2021/12/27 08:25:51;;;;;;;8.85;1.95;;;-5.30;99.90;;;;;;5071016;28;20220;-47
2021/12/27 08:28:17;;;;;;;19.40;3.70;;;-5.10;99.90;;;;;;5069269;28;20252;-47
2021/12/27 08:30:42;;;;;;;19.80;3.70;;;-5.00;99.90;;;;;;5070442;28;20171;-47
2021/12/27 08:33:08;;;;;;;20.65;3.95;;;-5.00;99.90;;;;;;5070632;28;20237;-47
2021/12/27 08:35:36;;;;;;;16.17;3.10;;;-5.10;99.90;;;;;;5070383;28;20393;-47
2021/12/27 08:38:01;;;;;;;10.77;2.30;;;-5.00;99.90;;;;;;5070551;28;20187;-47
2021/12/27 08:40:27;;;;;;;9.47;2.07;;;-5.00;99.90;;;;;;5070784;28;20186;-48
2021/12/27 08:42:53;;;;;;;21.37;4.10;;;-4.90;99.90;;;;;;5068683;28;20207;-48
2021/12/27 08:45:18;;;;;;;20.40;3.83;;;-5.00;99.90;;;;;;5070592;28;20217;-47
2021/12/27 08:47:44;;;;;;;30.23;5.43;;;-4.90;99.90;;;;;;5070243;28;20206;-48
2021/12/27 08:50:12;;;;;;;15.73;3.07;;;-4.80;99.90;;;;;;5070641;28;20627;-48
2021/12/27 08:52:38;;;;;;;17.57;3.33;;;-4.80;99.90;;;;;;5074563;28;20209;-48
2021/12/27 08:55:05;;;;;;;21.47;4.00;;;-4.50;99.90;;;;;;5074141;28;20399;-48
2021/12/27 08:57:33;;;;;;;17.30;3.35;;;-4.70;99.90;;;;;;5074518;28;20257;-48
2021/12/27 09:00:00;;;;;;;20.37;3.90;;;-4.70;99.90;;;;;;5074871;28;20631;-48
2021/12/27 09:02:25;;;;;;;17.63;3.33;;;-4.70;99.90;;;;;;5074337;28;20206;-47
2021/12/27 09:04:51;;;;;;;15.90;3.03;;;-4.70;99.90;;;;;;5074318;28;20210;-47
2021/12/27 09:07:18;;;;;;;6.77;1.57;;;-4.40;99.90;;;;;;5073968;28;20170;-47
2021/12/27 09:09:44;;;;;;;27.00;5.20;;;-4.60;99.90;;;;;;5073965;28;20252;-47
2021/12/27 09:12:11;;;;;;;18.03;3.47;;;-4.50;99.90;;;;;;5074270;28;20183;-47
2021/12/27 09:14:37;;;;;;;17.43;3.43;;;-4.50;99.90;;;;;;5073038;28;20265;-47
2021/12/27 09:17:03;;;;;;;12.83;2.77;;;-4.60;99.90;;;;;;5073899;28;20677;-47
2021/12/27 09:19:29;;;;;;;22.33;4.30;;;-4.50;99.90;;;;;;5073644;28;20569;-47
2021/12/27 09:21:54;;;;;;;6.93;1.60;;;-4.50;99.90;;;;;;5074118;28;20202;-47
2021/12/27 09:24:20;;;;;;;18.53;3.67;;;-4.50;99.90;;;;;;5073901;28;20225;-47
2021/12/27 09:26:46;;;;;;;18.63;3.70;;;-4.30;99.90;;;;;;5073584;28;20175;-46
2021/12/27 09:29:11;;;;;;;84.73;17.50;;;-4.40;99.90;;;;;;5081387;22;20640;-62
2021/12/27 09:31:37;;;;;;;29.35;8.75;;;-4.50;99.90;;;;;;5061627;28;20183;-62
2021/12/27 09:34:03;;;;;;;39.40;9.60;;;-4.50;99.90;;;;;;5060486;28;20190;-63
2021/12/27 09:36:29;;;;;;;45.70;11.15;;;-4.30;99.90;;;;;;5057308;28;20434;-63
2021/12/27 09:38:54;;;;;;;22.53;7.50;;;-4.30;99.90;;;;;;5056619;28;20782;-64
2021/12/27 09:41:20;;;;;;;115.47;25.50;;;;;;;;;;5036009;28;20299;-64
2021/12/27 09:43:47;;;;;;;154.43;30.40;;;-4.20;99.90;;;;;;5042318;28;20319;-63
2021/12/27 09:46:13;;;;;;;67.90;15.97;;;-4.20;99.90;;;;;;5047746;28;20225;-63
2021/12/27 09:48:39;;;;;;;169.03;34.40;;;-4.10;99.90;;;;;;5028925;28;20480;-63
2021/12/27 09:51:06;;;;;;;26.80;9.70;;;-4.20;99.90;;;;;;5048732;28;20610;-63
2021/12/27 09:53:31;;;;;;;62.27;15.70;;;-4.10;99.90;;;;;;5045712;28;20213;-63
2021/12/27 09:55:57;;;;;;;87.90;22.80;;;-3.80;99.90;;;;;;5049277;28;20186;-63
2021/12/27 09:58:23;;;;;;;42.93;13.30;;;;;;;;;;5037725;28;20221;-63
2021/12/27 10:00:49;;;;;;;24.47;9.37;;;-3.90;99.90;;;;;;5033219;28;20183;-63
2021/12/27 10:03:15;;;;;;;51.47;16.57;;;;;;;;;;5057881;28;20203;-63
2021/12/27 10:05:41;;;;;;;36.60;14.67;;;;;;;;;;5052155;28;20441;-62
2021/12/27 10:08:07;;;;;;;93.10;30.47;;;;;;;;;;5049516;28;20199;-62
2021/12/27 10:10:34;;;;;;;54.93;23.20;;;-3.70;99.90;;;;;;5053893;28;20187;-62
2021/12/27 10:13:05;;;;;;;68.80;16.07;;;-3.70;99.90;;;;;;5056250;28;20216;-63
2021/12/27 10:15:40;;;;;;;63.90;14.90;;;-3.70;99.90;;;;;;5049974;28;20191;-63
2021/12/27 10:18:14;;;;;;;91.17;23.37;;;-3.80;99.90;;;;;;5055119;28;20295;-63
2021/12/27 10:20:40;;;;;;;56.10;16.30;;;-3.70;99.90;;;;;;5046558;28;20201;-63
2021/12/27 10:23:07;;;;;;;44.93;15.33;;;-3.70;99.90;;;;;;5052988;28;20199;-63
2021/12/27 10:25:33;;;;;;;75.47;19.80;;;;;;;;;;5048739;28;20187;-63
2021/12/27 10:28:01;;;;;;;277.63;63.50;;;-3.50;99.90;;;;;;5046259;28;20238;-63
2021/12/27 10:30:29;;;;;;;39.30;13.70;;;-3.50;99.90;;;;;;5053923;28;20186;-62
2021/12/27 10:33:07;;;;;;;24.40;10.87;;;-3.60;99.90;;;;;;5059134;28;20202;-62
2021/12/27 10:35:38;;;;;;;24.00;10.83;;;-3.40;99.90;;;;;;5059906;28;20214;-63
2021/12/27 10:38:24;;;;;;;54.00;14.23;;;-3.50;99.90;;;;;;5054200;28;20330;-63
2021/12/27 10:40:54;;;;;;;129.03;28.60;;;-3.30;99.90;;;;;;5037685;28;20660;-64
2021/12/27 10:43:33;;;;;;;33.57;9.37;;;-3.40;99.90;;;;;;5037847;28;20205;-64
2021/12/27 10:46:07;;;;;;;45.90;11.63;;;-3.30;99.90;;;;;;5056560;28;20178;-64
2021/12/27 10:48:38;;;;;;;60.50;15.07;;;-3.30;99.90;;;;;;5048272;28;20201;-64
2021/12/27 10:51:05;;;;;;;43.85;11.55;;;;;;;;;;5052359;28;20190;-64
2021/12/27 10:53:48;;;;;;;42.13;10.20;;;-3.30;99.90;;;;;;5053695;28;20253;-64
2021/12/27 10:56:16;;;;;;;47.40;11.87;;;-3.30;99.90;;;;;;5057923;28;20277;-64
2021/12/27 10:58:47;;;;;;;63.57;13.60;;;;;;;;;;5057077;28;20214;-64
2021/12/27 11:01:18;;;;;;;29.17;8.80;;;-3.30;99.90;;;;;;5043017;28;20200;-66
2021/12/27 11:03:44;;;;;;;38.50;10.27;;;-2.60;99.90;;;;;;5046003;28;20211;-66
2021/12/27 11:06:12;;;;;;;91.00;18.03;;;-2.00;99.90;;;;;;5047619;28;20752;-62
2021/12/27 11:08:39;;;;;;;68.03;14.93;;;-0.90;99.90;;;;;;5025303;28;20720;-62
2021/12/27 11:11:06;;;;;;;27.93;7.93;;;-2.60;99.90;;;;;;5053388;28;20190;-63
2021/12/27 11:13:33;;;;;;;28.67;8.40;;;-2.50;99.90;;;;;;5059643;28;20266;-62
2021/12/27 11:15:58;;;;;;;23.80;8.17;;;-2.60;99.90;;;;;;5055809;28;20211;-62
2021/12/27 11:18:25;;;;;;;44.40;11.53;;;-2.60;99.90;;;;;;5050831;28;20685;-64
2021/12/27 11:20:56;;;;;;;51.55;13.20;;;-2.80;99.90;;;;;;5054723;28;20281;-62
2021/12/27 11:23:24;;;;;;;72.97;17.17;;;-2.80;99.90;;;;;;5050592;28;20879;-63
2021/12/27 11:26:03;;;;;;;61.10;14.87;;;-2.60;99.90;;;;;;5045486;28;20179;-62
2021/12/27 11:28:40;;;;;;;43.53;12.53;;;-2.60;99.90;;;;;;5046720;28;20301;-64
2021/12/27 11:31:28;;;;;;;62.43;14.97;;;-2.30;99.90;;;;;;5051549;28;20232;-64
2021/12/27 11:33:57;;;;;;;55.17;12.77;;;-2.60;99.90;;;;;;5042268;28;20189;-63
2021/12/27 11:36:25;;;;;;;36.83;9.57;;;-2.90;99.90;;;;;;5056388;28;20205;-63
2021/12/27 11:38:51;;;;;;;37.93;8.83;;;-2.40;99.90;;;;;;5050260;28;20200;-63
2021/12/27 11:41:34;;;;;;;46.90;11.03;;;-2.50;99.90;;;;;;5039591;28;20183;-63
2021/12/27 11:44:04;;;;;;;38.57;9.20;;;-2.70;99.90;;;;;;5059521;28;20634;-64
2021/12/27 11:46:51;;;;;;;28.63;7.20;;;-2.50;99.90;;;;;;5050517;28;20254;-64
2021/12/27 11:49:32;;;;;;;26.50;6.70;;;-2.60;99.90;;;;;;5054400;28;20286;-64
2021/12/27 11:52:23;;;;;;;27.10;7.00;;;-2.20;99.90;;;;;;5038599;28;20673;-64
2021/12/27 11:55:03;;;;;;;25.20;6.73;;;-2.20;99.90;;;;;;5024297;28;20734;-63
2021/12/27 11:57:52;;;;;;;21.40;5.83;;;-2.10;99.90;;;;;;5038567;28;20187;-64
2021/12/27 12:00:17;;;;;;;37.90;8.73;;;-1.90;99.90;;;;;;5059521;28;20186;-63
2021/12/27 12:02:45;;;;;;;37.93;8.77;;;-2.00;99.90;;;;;;5048387;28;20180;-63
2021/12/27 12:05:10;;;;;;;30.53;7.87;;;-1.60;99.90;;;;;;5046799;28;20238;-63
2021/12/27 12:07:36;;;;;;;35.37;8.83;;;-1.80;99.90;;;;;;5053295;28;20219;-63
2021/12/27 12:10:03;;;;;;;26.60;7.40;;;-1.90;99.90;;;;;;5049697;28;20199;-63
2021/12/27 12:12:28;;;;;;;27.83;7.17;;;-1.60;99.90;;;;;;5051221;28;20230;-63
2021/12/27 12:14:56;;;;;;;23.37;6.67;;;-1.80;99.90;;;;;;5018632;28;20665;-63
2021/12/27 12:17:38;;;;;;;18.43;5.70;;;-1.90;99.90;;;;;;5058946;28;20176;-63
2021/12/27 12:20:04;;;;;;;51.67;11.20;;;-1.80;99.90;;;;;;5029083;28;20301;-63
2021/12/27 12:22:34;;;;;;;49.77;10.83;;;-2.00;99.90;;;;;;5049096;28;20202;-64
2021/12/27 12:25:10;;;;;;;67.20;13.40;;;-1.90;99.90;;;;;;5043154;28;20210;-64
2021/12/27 12:27:35;;;;;;;17.03;5.13;;;-2.20;99.90;;;;;;5051804;28;20186;-63
2021/12/27 12:30:01;;;;;;;32.47;7.93;;;-1.80;99.90;;;;;;5059741;28;20588;-64
2021/12/27 12:32:27;;;;;;;25.50;6.53;;;;;;;;;;5062738;28;20175;-63
2021/12/27 12:34:53;;;;;;;35.57;8.37;;;-2.00;99.90;;;;;;5055576;28;20198;-64
2021/12/27 12:37:19;;;;;;;23.53;6.20;;;-2.00;99.90;;;;;;5056962;28;20187;-64
2021/12/27 12:39:48;;;;;;;21.27;5.97;;;-2.00;99.90;;;;;;5042412;28;20209;-63
2021/12/27 12:42:19;;;;;;;22.23;6.43;;;-1.90;99.90;;;;;;5060708;28;20183;-64
2021/12/27 12:44:45;;;;;;;33.17;8.00;;;-1.90;99.90;;;;;;5058589;28;20206;-64
2021/12/27 12:47:11;;;;;;;24.77;6.37;;;-2.20;99.90;;;;;;5061205;28;20186;-64
2021/12/27 12:49:36;;;;;;;15.53;4.77;;;-1.90;99.90;;;;;;5063976;28;20252;-64